createdAt,value
2022-08-05T00:00:22.820Z,26.94
2022-08-05T00:01:27.597Z,26.93
2022-08-05T00:02:22.931Z,26.93
2022-08-05T00:03:22.796Z,26.91
2022-08-05T00:04:22.785Z,26.90
2022-08-05T00:06:02.764Z,26.90
2022-08-05T00:06:32.144Z,26.90
2022-08-05T00:07:59.370Z,26.88
2022-08-05T00:08:34.865Z,26.88
2022-08-05T00:09:22.740Z,26.88
2022-08-05T00:10:22.735Z,26.87
2022-08-05T00:11:30.498Z,26.87
2022-08-05T00:12:22.713Z,26.87
2022-08-05T00:13:38.101Z,26.86
2022-08-05T00:14:22.689Z,26.84
2022-08-05T00:15:56.263Z,26.84
2022-08-05T00:16:35.383Z,26.83
2022-08-05T00:17:22.666Z,26.81
2022-08-05T00:18:22.917Z,26.81
2022-08-05T00:19:23.424Z,26.81
2022-08-05T00:20:22.630Z,26.81
2022-08-05T00:21:22.625Z,26.79
2022-08-05T00:22:22.605Z,26.79
2022-08-05T00:23:45.541Z,26.79
2022-08-05T00:24:24.597Z,26.78
2022-08-05T00:25:22.588Z,26.79
2022-08-05T00:26:22.670Z,26.79
2022-08-05T00:27:22.638Z,26.79
2022-08-05T00:28:29.631Z,26.79
2022-08-05T00:29:25.414Z,26.79
2022-08-05T00:30:31.916Z,26.78
2022-08-05T00:31:41.299Z,26.78
2022-08-05T00:32:22.517Z,26.78
2022-08-05T00:34:54.424Z,26.78
2022-08-05T00:35:10.457Z,26.78
2022-08-05T00:35:22.481Z,26.76
2022-08-05T00:37:12.692Z,26.78
2022-08-05T00:37:22.468Z,26.78
2022-08-05T00:38:28.834Z,26.78
2022-08-05T00:39:22.490Z,26.78
2022-08-05T00:40:27.018Z,26.78
2022-08-05T00:41:22.426Z,26.76
2022-08-05T00:42:31.679Z,26.76
2022-08-05T00:43:22.409Z,26.78
2022-08-05T00:44:23.206Z,26.76
2022-08-05T00:45:28.399Z,26.76
2022-08-05T00:46:42.778Z,26.76
2022-08-05T00:47:22.398Z,26.75
2022-08-05T00:48:31.183Z,26.75
2022-08-05T00:49:22.350Z,26.75
2022-08-05T00:50:22.332Z,26.75
2022-08-05T00:51:50.411Z,26.76
2022-08-05T00:52:28.626Z,26.76
2022-08-05T00:54:00.707Z,26.75
2022-08-05T00:54:22.305Z,26.76
2022-08-05T00:55:22.298Z,26.75
2022-08-05T00:56:22.690Z,26.75
2022-08-05T00:57:22.590Z,26.73
2022-08-05T00:58:22.254Z,26.75
2022-08-05T00:59:22.268Z,26.75
2022-08-05T01:00:22.239Z,26.75
2022-08-05T01:01:42.220Z,26.73
2022-08-05T01:02:22.249Z,26.73
2022-08-05T01:03:23.183Z,26.73
2022-08-05T01:04:26.960Z,26.75
2022-08-05T01:05:22.193Z,26.73
2022-08-05T01:06:22.186Z,26.72
2022-08-05T01:07:22.197Z,26.72
2022-08-05T01:08:41.029Z,26.72
2022-08-05T01:09:22.159Z,26.71
2022-08-05T01:10:22.134Z,26.71
2022-08-05T01:11:33.691Z,26.69
2022-08-05T01:12:22.121Z,26.69
2022-08-05T01:13:22.451Z,26.69
2022-08-05T01:14:28.445Z,26.69
2022-08-05T01:15:35.111Z,26.71
2022-08-05T01:16:26.326Z,26.69
2022-08-05T01:17:22.260Z,26.68
2022-08-05T01:18:22.057Z,26.68
2022-08-05T01:19:30.153Z,26.68
2022-08-05T01:20:22.418Z,26.66
2022-08-05T01:21:22.972Z,26.66
2022-08-05T01:22:24.285Z,26.66
2022-08-05T01:23:22.890Z,26.66
2022-08-05T01:24:22.158Z,26.66
2022-08-05T01:25:22.026Z,26.65
2022-08-05T01:26:21.983Z,26.65
2022-08-05T01:27:22.190Z,26.64
2022-08-05T01:28:21.961Z,26.64
2022-08-05T01:29:23.235Z,26.64
2022-08-05T01:30:34.130Z,26.64
2022-08-05T01:31:21.949Z,26.61
2022-08-05T01:32:21.922Z,26.60
2022-08-05T01:33:21.914Z,26.60
2022-08-05T01:34:21.923Z,26.60
2022-08-05T01:35:50.837Z,26.61
2022-08-05T01:36:21.898Z,26.60
2022-08-05T01:37:25.002Z,26.60
2022-08-05T01:38:26.840Z,26.61
2022-08-05T01:39:46.849Z,26.60
2022-08-05T01:40:21.857Z,26.61
2022-08-05T01:41:22.061Z,26.61
2022-08-05T01:42:21.843Z,26.64
2022-08-05T01:43:22.291Z,26.60
2022-08-05T01:44:21.804Z,26.60
2022-08-05T01:45:21.809Z,26.60
2022-08-05T01:46:43.012Z,26.59
2022-08-05T01:47:22.129Z,26.57
2022-08-05T01:48:21.791Z,26.57
2022-08-05T01:49:23.896Z,26.56
2022-08-05T01:50:28.704Z,26.53
2022-08-05T01:51:21.747Z,26.51
2022-08-05T01:52:21.728Z,26.51
2022-08-05T01:53:42.203Z,26.50
2022-08-05T01:54:25.616Z,26.50
2022-08-05T01:55:21.718Z,26.50
2022-08-05T01:58:10.720Z,26.50
2022-08-05T01:58:40.421Z,26.50
2022-08-05T01:58:48.508Z,26.49
2022-08-05T01:59:29.537Z,26.47
2022-08-05T02:00:30.686Z,26.49
2022-08-05T02:01:29.582Z,26.49
2022-08-05T02:02:29.545Z,26.49
2022-08-05T02:03:33.902Z,26.50
2022-08-05T02:04:30.027Z,26.50
2022-08-05T02:05:29.483Z,26.50
2022-08-05T02:06:37.540Z,26.51
2022-08-05T02:07:30.338Z,26.50
2022-08-05T02:08:30.679Z,26.53
2022-08-05T02:09:29.461Z,26.51
2022-08-05T02:10:29.427Z,26.53
2022-08-05T02:11:33.416Z,26.53
2022-08-05T02:12:29.409Z,26.54
2022-08-05T02:13:36.482Z,26.54
2022-08-05T02:14:29.394Z,26.54
2022-08-05T02:15:33.500Z,26.54
2022-08-05T02:16:29.373Z,26.54
2022-08-05T02:18:12.520Z,26.56
2022-08-05T02:18:35.465Z,26.56
2022-08-05T02:19:34.274Z,26.56
2022-08-05T02:20:29.340Z,26.56
2022-08-05T02:21:29.331Z,26.56
2022-08-05T02:22:29.347Z,26.56
2022-08-05T02:23:29.310Z,26.54
2022-08-05T02:24:29.294Z,26.54
2022-08-05T02:25:33.085Z,26.54
2022-08-05T02:26:29.279Z,26.54
2022-08-05T02:27:29.975Z,26.53
2022-08-05T02:28:33.004Z,26.53
2022-08-05T02:29:59.584Z,26.53
2022-08-05T02:30:29.933Z,26.51
2022-08-05T02:31:29.237Z,26.50
2022-08-05T02:32:31.686Z,26.51
2022-08-05T02:33:35.928Z,26.50
2022-08-05T02:34:29.205Z,26.50
2022-08-05T02:35:33.220Z,26.50
2022-08-05T02:36:31.478Z,26.50
2022-08-05T02:37:29.174Z,26.49
2022-08-05T02:38:35.268Z,26.47
2022-08-05T02:39:29.202Z,26.44
2022-08-05T02:40:29.151Z,26.44
2022-08-05T02:41:43.133Z,26.42
2022-08-05T02:42:34.320Z,26.41
2022-08-05T02:43:29.120Z,26.41
2022-08-05T02:44:29.125Z,26.41
2022-08-05T02:45:51.637Z,26.39
2022-08-05T02:46:29.089Z,26.41
2022-08-05T02:47:58.686Z,26.39
2022-08-05T02:48:29.940Z,26.41
2022-08-05T02:49:37.118Z,26.39
2022-08-05T02:50:29.069Z,26.41
2022-08-05T02:52:03.453Z,26.41
2022-08-05T02:52:30.676Z,26.41
2022-08-05T02:53:29.017Z,26.41
2022-08-05T02:54:34.765Z,26.41
2022-08-05T02:55:52.044Z,26.41
2022-08-05T02:56:29.011Z,26.39
2022-08-05T02:58:09.759Z,26.41
2022-08-05T02:58:30.310Z,26.41
2022-08-05T02:59:28.987Z,26.41
2022-08-05T03:00:28.953Z,26.41
2022-08-05T03:01:29.001Z,26.41
2022-08-05T03:02:28.948Z,26.39
2022-08-05T03:03:34.198Z,26.39
2022-08-05T03:04:28.906Z,26.39
2022-08-05T03:06:57.159Z,26.39
2022-08-05T03:07:04.095Z,26.39
2022-08-05T03:07:59.123Z,26.39
2022-08-05T03:08:29.982Z,26.39
2022-08-05T03:09:38.125Z,26.39
2022-08-05T03:10:28.878Z,26.41
2022-08-05T03:11:57.133Z,26.41
2022-08-05T03:12:28.857Z,26.39
2022-08-05T03:13:51.426Z,26.41
2022-08-05T03:14:28.809Z,26.42
2022-08-05T03:15:28.805Z,26.41
2022-08-05T03:16:28.784Z,26.44
2022-08-05T03:17:28.780Z,26.42
2022-08-05T03:18:30.109Z,26.42
2022-08-05T03:19:33.203Z,26.44
2022-08-05T03:20:28.755Z,26.44
2022-08-05T03:21:29.035Z,26.44
2022-08-05T03:22:32.407Z,26.46
2022-08-05T03:23:28.721Z,26.46
2022-08-05T03:24:30.389Z,26.46
2022-08-05T03:25:33.476Z,26.46
2022-08-05T03:26:31.733Z,26.46
2022-08-05T03:27:39.169Z,26.47
2022-08-05T03:28:28.721Z,26.46
2022-08-05T03:29:44.827Z,26.46
2022-08-05T03:30:33.656Z,26.46
2022-08-05T03:31:55.740Z,26.44
2022-08-05T03:32:30.819Z,26.46
2022-08-05T03:33:32.143Z,26.44
2022-08-05T03:34:28.763Z,26.44
2022-08-05T03:35:28.605Z,26.46
2022-08-05T03:36:30.706Z,26.44
2022-08-05T03:37:28.587Z,26.44
2022-08-05T03:38:33.131Z,26.44
2022-08-05T03:39:28.596Z,26.44
2022-08-05T03:40:31.821Z,26.42
2022-08-05T03:41:32.944Z,26.42
2022-08-05T03:42:29.049Z,26.44
2022-08-05T03:44:08.202Z,26.44
2022-08-05T03:44:29.059Z,26.42
2022-08-05T03:45:28.509Z,26.42
2022-08-05T03:46:29.662Z,26.46
2022-08-05T03:47:30.498Z,26.42
2022-08-05T03:48:29.147Z,26.44
2022-08-05T03:49:31.049Z,26.44
2022-08-05T03:50:28.465Z,26.42
2022-08-05T03:52:36.629Z,26.44
2022-08-05T03:55:52.829Z,26.44
2022-08-05T03:56:17.899Z,26.42
2022-08-05T03:56:35.698Z,26.44
2022-08-05T03:57:29.028Z,26.44
2022-08-05T03:58:28.872Z,26.42
2022-08-05T03:59:25.397Z,26.44
2022-08-05T04:00:25.389Z,26.44
2022-08-05T04:01:25.490Z,26.44
2022-08-05T04:02:38.188Z,26.42
2022-08-05T04:03:28.479Z,26.42
2022-08-05T04:04:26.572Z,26.42
2022-08-05T04:05:25.342Z,26.44
2022-08-05T04:06:25.334Z,26.44
2022-08-05T04:07:25.616Z,26.44
2022-08-05T04:08:35.207Z,26.42
2022-08-05T04:09:26.375Z,26.42
2022-08-05T04:10:25.296Z,26.41
2022-08-05T04:11:25.284Z,26.38
2022-08-05T04:12:25.284Z,26.36
2022-08-05T04:13:25.265Z,26.34
2022-08-05T04:14:30.280Z,26.31
2022-08-05T04:15:25.252Z,26.29
2022-08-05T04:16:32.328Z,26.28
2022-08-05T04:17:25.456Z,26.24
2022-08-05T04:18:25.496Z,26.21
2022-08-05T04:19:25.204Z,26.21
2022-08-05T04:20:25.218Z,26.20
2022-08-05T04:22:09.746Z,26.19
2022-08-05T04:22:25.186Z,26.19
2022-08-05T04:24:04.738Z,26.16
2022-08-05T04:24:25.191Z,26.17
2022-08-05T04:25:57.496Z,26.16
2022-08-05T04:26:25.147Z,26.13
2022-08-05T04:27:33.295Z,26.13
2022-08-05T04:28:30.783Z,26.13
2022-08-05T04:29:25.119Z,26.13
2022-08-05T04:30:26.568Z,26.13
2022-08-05T04:31:27.698Z,26.16
2022-08-05T04:32:30.823Z,26.17
2022-08-05T04:33:54.253Z,26.17
2022-08-05T04:34:32.751Z,26.19
2022-08-05T04:35:25.057Z,26.19
2022-08-05T04:36:44.740Z,26.19
2022-08-05T04:38:02.181Z,26.20
2022-08-05T04:38:39.830Z,26.20
2022-08-05T04:39:25.143Z,26.20
2022-08-05T04:40:25.002Z,26.21
2022-08-05T04:41:36.859Z,26.21
2022-08-05T04:42:25.289Z,26.23
2022-08-05T04:43:26.002Z,26.23
2022-08-05T04:44:29.502Z,26.24
2022-08-05T04:45:47.872Z,26.23
2022-08-05T04:46:27.851Z,26.23
2022-08-05T04:47:25.239Z,26.27
2022-08-05T04:48:27.719Z,26.27
2022-08-05T04:49:38.619Z,26.24
2022-08-05T04:50:34.376Z,26.27
2022-08-05T04:51:24.900Z,26.27
2022-08-05T04:52:27.532Z,26.27
2022-08-05T04:53:24.820Z,26.27
2022-08-05T04:54:24.830Z,26.28
2022-08-05T04:56:11.866Z,26.29
2022-08-05T04:56:35.051Z,26.29
2022-08-05T04:57:28.602Z,26.29
2022-08-05T04:58:24.823Z,26.29
2022-08-05T04:59:38.995Z,26.31
2022-08-05T05:00:24.819Z,26.31
2022-08-05T05:02:06.350Z,26.29
2022-08-05T05:02:36.379Z,26.31
2022-08-05T05:03:24.726Z,26.29
2022-08-05T05:04:24.710Z,26.31
2022-08-05T05:05:28.618Z,26.32
2022-08-05T05:06:35.978Z,26.32
2022-08-05T05:07:29.671Z,26.31
2022-08-05T05:08:29.995Z,26.31
2022-08-05T05:09:24.664Z,26.32
2022-08-05T05:10:24.646Z,26.32
2022-08-05T05:11:24.656Z,26.34
2022-08-05T05:12:24.638Z,26.32
2022-08-05T05:13:24.615Z,26.34
2022-08-05T05:14:31.217Z,26.32
2022-08-05T05:15:56.211Z,26.32
2022-08-05T05:16:24.618Z,26.32
2022-08-05T05:17:55.582Z,26.31
2022-08-05T05:18:28.714Z,26.31
2022-08-05T05:19:26.609Z,26.31
2022-08-05T05:20:28.405Z,26.31
2022-08-05T05:21:24.564Z,26.31
2022-08-05T05:22:26.382Z,26.29
2022-08-05T05:23:24.515Z,26.31
2022-08-05T05:24:56.256Z,26.29
2022-08-05T05:25:40.373Z,26.29
2022-08-05T05:26:28.872Z,26.29
2022-08-05T05:27:24.781Z,26.29
2022-08-05T05:28:24.927Z,26.28
2022-08-05T05:29:24.479Z,26.29
2022-08-05T05:30:31.107Z,26.29
2022-08-05T05:31:24.469Z,26.29
2022-08-05T05:32:24.440Z,26.29
2022-08-05T05:33:24.420Z,26.28
2022-08-05T05:34:26.645Z,26.28
2022-08-05T05:35:24.399Z,26.29
2022-08-05T05:36:24.400Z,26.28
2022-08-05T05:37:29.295Z,26.28
2022-08-05T05:38:27.411Z,26.29
2022-08-05T05:39:24.460Z,26.29
2022-08-05T05:40:26.120Z,26.29
2022-08-05T05:41:24.399Z,26.29
2022-08-05T05:42:24.388Z,26.29
2022-08-05T05:43:57.478Z,26.28
2022-08-05T05:44:36.955Z,26.28
2022-08-05T05:45:24.569Z,26.29
2022-08-05T05:46:24.295Z,26.29
2022-08-05T05:47:30.576Z,26.31
2022-08-05T05:48:27.691Z,26.29
2022-08-05T05:49:24.295Z,26.29
2022-08-05T05:50:24.259Z,26.29
2022-08-05T05:51:24.250Z,26.29
2022-08-05T05:52:26.403Z,26.29
2022-08-05T05:53:24.232Z,26.29
2022-08-05T05:54:50.607Z,26.29
2022-08-05T05:55:24.212Z,26.31
2022-08-05T05:56:26.020Z,26.29
2022-08-05T05:57:24.442Z,26.29
2022-08-05T05:58:30.121Z,26.29
2022-08-05T05:59:24.174Z,26.29
2022-08-05T06:00:31.446Z,26.31
2022-08-05T06:01:24.152Z,26.31
2022-08-05T06:02:32.609Z,26.29
2022-08-05T06:03:40.589Z,26.31
2022-08-05T06:04:24.222Z,26.29
2022-08-05T06:05:24.149Z,26.29
2022-08-05T06:06:24.107Z,26.29
2022-08-05T06:07:24.417Z,26.31
2022-08-05T06:08:31.501Z,26.29
2022-08-05T06:09:25.654Z,26.32
2022-08-05T06:10:24.074Z,26.29
2022-08-05T06:11:24.060Z,26.31
2022-08-05T06:12:24.049Z,26.29
2022-08-05T06:13:24.033Z,26.29
2022-08-05T06:14:24.057Z,26.29
2022-08-05T06:15:24.490Z,26.28
2022-08-05T06:16:36.586Z,26.29
2022-08-05T06:17:24.579Z,26.28
2022-08-05T06:18:31.484Z,26.28
2022-08-05T06:19:33.923Z,26.28
2022-08-05T06:20:23.976Z,26.29
2022-08-05T06:21:23.980Z,26.27
2022-08-05T06:22:23.957Z,26.28
2022-08-05T06:23:24.084Z,26.28
2022-08-05T06:24:27.248Z,26.27
2022-08-05T06:25:25.322Z,26.28
2022-08-05T06:26:25.163Z,26.27
2022-08-05T06:28:11.848Z,26.27
2022-08-05T06:28:28.430Z,26.28
2022-08-05T06:29:48.145Z,26.24
2022-08-05T06:30:23.876Z,26.27
2022-08-05T06:31:30.400Z,26.24
2022-08-05T06:32:29.005Z,26.24
2022-08-05T06:34:00.491Z,26.24
2022-08-05T06:34:23.855Z,26.27
2022-08-05T06:36:07.830Z,26.27
2022-08-05T06:36:25.839Z,26.27
2022-08-05T06:37:56.505Z,26.23
2022-08-05T06:38:35.980Z,26.23
2022-08-05T06:39:24.557Z,26.23
2022-08-05T06:40:28.078Z,26.21
2022-08-05T06:41:23.765Z,26.24
2022-08-05T06:42:23.751Z,26.23
2022-08-05T06:43:59.303Z,26.23
2022-08-05T06:44:23.735Z,26.23
2022-08-05T06:45:44.862Z,26.21
2022-08-05T06:46:23.737Z,26.21
2022-08-05T06:47:30.236Z,26.23
2022-08-05T06:48:52.701Z,26.23
2022-08-05T06:50:01.745Z,26.21
2022-08-05T06:50:23.776Z,26.21
2022-08-05T06:51:29.772Z,26.23
2022-08-05T06:52:38.212Z,26.21
2022-08-05T06:53:27.900Z,26.23
2022-08-05T06:54:25.797Z,26.21
2022-08-05T06:55:23.622Z,26.21
2022-08-05T06:56:26.320Z,26.21
2022-08-05T06:58:03.304Z,26.20
2022-08-05T06:58:29.705Z,26.23
2022-08-05T06:59:23.585Z,26.20
2022-08-05T07:00:24.692Z,26.21
2022-08-05T07:01:23.703Z,26.21
2022-08-05T07:02:23.561Z,26.20
2022-08-05T07:03:32.423Z,26.21
2022-08-05T07:04:23.540Z,26.21
2022-08-05T07:05:31.811Z,26.21
2022-08-05T07:06:23.538Z,26.21
2022-08-05T07:07:24.233Z,26.20
2022-08-05T07:08:23.517Z,26.20
2022-08-05T07:09:24.747Z,26.21
2022-08-05T07:10:23.478Z,26.20
2022-08-05T07:11:25.238Z,26.20
2022-08-05T07:12:23.464Z,26.20
2022-08-05T07:13:56.751Z,26.20
2022-08-05T07:14:29.694Z,26.19
2022-08-05T07:15:34.332Z,26.20
2022-08-05T07:17:57.013Z,26.19
2022-08-05T07:18:09.796Z,26.19
2022-08-05T07:18:29.197Z,26.19
2022-08-05T07:20:10.620Z,26.17
2022-08-05T07:20:37.116Z,26.17
2022-08-05T07:21:25.598Z,26.17
2022-08-05T07:22:28.662Z,26.17
2022-08-05T07:23:26.177Z,26.19
2022-08-05T07:24:23.347Z,26.17
2022-08-05T07:25:55.916Z,26.17
2022-08-05T07:26:25.738Z,26.17
2022-08-05T07:27:27.251Z,26.17
2022-08-05T07:28:23.304Z,26.17
2022-08-05T07:30:22.106Z,26.16
2022-08-05T07:30:38.840Z,26.17
2022-08-05T07:31:41.116Z,26.17
2022-08-05T07:32:26.306Z,26.16
2022-08-05T07:33:36.707Z,26.13
2022-08-05T07:34:28.448Z,26.12
2022-08-05T07:36:04.000Z,26.12
2022-08-05T07:36:24.505Z,26.11
2022-08-05T07:37:23.496Z,26.09
2022-08-05T07:38:32.305Z,26.09
2022-08-05T07:39:24.826Z,26.06
2022-08-05T07:40:31.834Z,26.08
2022-08-05T07:42:07.927Z,26.09
2022-08-05T07:42:33.718Z,26.08
2022-08-05T07:43:23.153Z,26.08
2022-08-05T07:44:23.143Z,26.08
2022-08-05T07:45:56.803Z,26.06
2022-08-05T07:46:25.156Z,26.08
2022-08-05T07:47:25.880Z,26.08
2022-08-05T07:49:03.350Z,26.08
2022-08-05T07:49:23.094Z,26.08
2022-08-05T07:50:28.941Z,26.08
2022-08-05T07:51:37.546Z,26.06
2022-08-05T07:52:23.782Z,26.06
2022-08-05T07:53:23.052Z,26.08
2022-08-05T07:54:23.350Z,26.08
2022-08-05T07:56:05.725Z,26.08
2022-08-05T07:57:02.527Z,26.06
2022-08-05T07:57:52.234Z,26.08
2022-08-05T07:58:57.447Z,26.09
2022-08-05T07:59:30.995Z,26.09
2022-08-05T08:00:22.997Z,26.09
2022-08-05T08:01:23.044Z,26.12
2022-08-05T08:02:26.534Z,26.11
2022-08-05T08:03:22.961Z,26.11
2022-08-05T08:04:34.314Z,26.11
2022-08-05T08:05:22.945Z,26.11
2022-08-05T08:06:22.927Z,26.11
2022-08-05T08:07:23.388Z,26.12
2022-08-05T08:08:22.910Z,26.12
2022-08-05T08:09:22.902Z,26.13
2022-08-05T08:10:22.936Z,26.13
2022-08-05T08:11:27.771Z,26.16
2022-08-05T08:12:35.331Z,26.17
2022-08-05T08:13:29.437Z,26.16
2022-08-05T08:14:22.853Z,26.16
2022-08-05T08:16:35.791Z,26.17
2022-08-05T08:16:55.854Z,26.17
2022-08-05T08:17:23.409Z,26.17
2022-08-05T08:18:22.807Z,26.17
2022-08-05T08:20:21.888Z,26.16
2022-08-05T08:21:01.839Z,26.16
2022-08-05T08:21:22.783Z,26.17
2022-08-05T08:22:22.773Z,26.17
2022-08-05T08:24:02.165Z,26.19
2022-08-05T08:24:22.780Z,26.19
2022-08-05T08:25:27.134Z,26.17
2022-08-05T08:26:26.555Z,26.19
2022-08-05T08:27:23.120Z,26.19
2022-08-05T08:28:35.746Z,26.19
2022-08-05T08:30:03.178Z,26.20
2022-08-05T08:30:32.616Z,26.20
2022-08-05T08:31:22.684Z,26.20
2022-08-05T08:32:28.083Z,26.20
2022-08-05T08:33:22.672Z,26.21
2022-08-05T08:34:30.323Z,26.20
2022-08-05T08:35:22.646Z,26.21
2022-08-05T08:36:38.197Z,26.20
2022-08-05T08:37:28.056Z,26.19
2022-08-05T08:38:36.129Z,26.19
2022-08-05T08:39:22.639Z,26.17
2022-08-05T08:40:22.589Z,26.16
2022-08-05T08:41:26.122Z,26.16
2022-08-05T08:42:50.258Z,26.13
2022-08-05T08:45:17.127Z,26.12
2022-08-05T08:45:29.771Z,26.12
2022-08-05T08:45:35.472Z,26.09
2022-08-05T08:46:35.458Z,26.08
2022-08-05T08:48:05.702Z,26.06
2022-08-05T08:49:03.295Z,26.04
2022-08-05T08:50:22.901Z,26.04
2022-08-05T08:51:04.034Z,26.01
2022-08-05T08:52:13.457Z,26.03
2022-08-05T08:52:35.404Z,26.01
2022-08-05T08:53:35.418Z,26.01
2022-08-05T08:54:36.389Z,26.00
2022-08-05T08:56:03.439Z,25.93
2022-08-05T08:56:35.391Z,25.86
2022-08-05T08:57:46.451Z,25.79
2022-08-05T08:58:37.644Z,25.71
2022-08-05T08:59:35.360Z,25.60
2022-08-05T09:00:35.371Z,25.53
2022-08-05T09:01:35.313Z,25.46
2022-08-05T09:02:35.309Z,25.42
2022-08-05T09:03:40.508Z,25.39
2022-08-05T09:04:35.285Z,25.36
2022-08-05T09:05:38.606Z,25.34
2022-08-05T09:06:36.355Z,25.31
2022-08-05T09:07:39.478Z,25.30
2022-08-05T09:08:35.249Z,25.30
2022-08-05T09:09:35.665Z,25.34
2022-08-05T09:10:35.224Z,25.34
2022-08-05T09:11:53.397Z,25.35
2022-08-05T09:12:35.616Z,25.35
2022-08-05T09:14:09.194Z,25.36
2022-08-05T09:15:06.180Z,25.38
2022-08-05T09:15:36.921Z,25.38
2022-08-05T09:16:35.204Z,25.41
2022-08-05T09:17:42.313Z,25.39
2022-08-05T09:18:35.147Z,25.38
2022-08-05T09:19:36.336Z,25.39
2022-08-05T09:20:37.307Z,25.41
2022-08-05T09:22:22.776Z,25.41
2022-08-05T09:22:35.428Z,25.39
2022-08-05T09:23:37.461Z,25.38
2022-08-05T09:24:35.089Z,25.41
2022-08-05T09:26:00.858Z,25.39
2022-08-05T09:26:35.071Z,25.38
2022-08-05T09:28:05.387Z,25.38
2022-08-05T09:28:35.226Z,25.35
2022-08-05T09:29:35.031Z,25.35
2022-08-05T09:30:35.024Z,25.34
2022-08-05T09:32:41.098Z,25.34
2022-08-05T09:32:51.604Z,25.31
2022-08-05T09:33:35.422Z,25.34
2022-08-05T09:34:34.980Z,25.34
2022-08-05T09:35:34.970Z,25.34
2022-08-05T09:36:34.970Z,25.34
2022-08-05T09:38:12.917Z,25.35
2022-08-05T09:38:34.944Z,25.36
2022-08-05T09:39:42.009Z,25.38
2022-08-05T09:40:34.924Z,25.38
2022-08-05T09:41:38.259Z,25.39
2022-08-05T09:42:35.269Z,25.39
2022-08-05T09:43:41.277Z,25.42
2022-08-05T09:44:34.905Z,25.41
2022-08-05T09:46:06.697Z,25.42
2022-08-05T09:46:35.104Z,25.42
2022-08-05T09:47:48.139Z,25.44
2022-08-05T09:48:34.839Z,25.44
2022-08-05T09:49:57.095Z,25.44
2022-08-05T09:50:38.808Z,25.44
2022-08-05T09:51:36.635Z,25.44
2022-08-05T09:52:34.798Z,25.44
2022-08-05T09:53:54.313Z,25.45
2022-08-05T09:54:34.790Z,25.44
2022-08-05T09:55:58.061Z,25.45
2022-08-05T09:56:34.779Z,25.45
2022-08-05T09:57:35.382Z,25.44
2022-08-05T09:58:34.735Z,25.44
2022-08-05T09:59:35.099Z,25.42
2022-08-05T10:00:34.718Z,25.41
2022-08-05T10:01:34.709Z,25.41
2022-08-05T10:02:34.780Z,25.39
2022-08-05T10:03:56.615Z,25.36
2022-08-05T10:04:34.870Z,25.36
2022-08-05T10:05:34.670Z,25.35
2022-08-05T10:06:34.662Z,25.35
2022-08-05T10:08:10.593Z,25.35
2022-08-05T10:08:42.482Z,25.34
2022-08-05T10:09:44.868Z,25.35
2022-08-05T10:10:34.618Z,25.35
2022-08-05T10:11:35.270Z,25.36
2022-08-05T10:12:35.163Z,25.38
2022-08-05T10:13:47.564Z,25.38
2022-08-05T10:14:34.605Z,25.41
2022-08-05T10:15:34.632Z,25.41
2022-08-05T10:16:41.678Z,25.42
2022-08-05T10:17:39.203Z,25.42
2022-08-05T10:18:34.538Z,25.42
2022-08-05T10:20:03.577Z,25.42
2022-08-05T10:20:34.546Z,25.42
2022-08-05T10:21:35.379Z,25.41
2022-08-05T10:22:34.983Z,25.42
2022-08-05T10:23:59.252Z,25.41
2022-08-05T10:24:34.483Z,25.42
2022-08-05T10:25:34.462Z,25.45
2022-08-05T10:26:34.447Z,25.44
2022-08-05T10:28:13.551Z,25.44
2022-08-05T10:28:36.359Z,25.42
2022-08-05T10:30:06.387Z,25.44
2022-08-05T10:32:48.474Z,25.44
2022-08-05T10:33:02.492Z,25.45
2022-08-05T10:33:09.283Z,25.44
2022-08-05T10:34:08.252Z,25.42
2022-08-05T10:35:07.865Z,25.42
2022-08-05T10:36:07.861Z,25.42
2022-08-05T10:37:07.849Z,25.39
2022-08-05T10:38:08.383Z,25.39
2022-08-05T10:39:11.822Z,25.41
2022-08-05T10:40:17.698Z,25.39
2022-08-05T10:41:07.883Z,25.39
2022-08-05T10:42:07.801Z,25.39
2022-08-05T10:43:07.786Z,25.39
2022-08-05T10:44:07.799Z,25.39
2022-08-05T10:45:21.387Z,25.39
2022-08-05T10:46:07.787Z,25.39
2022-08-05T10:47:10.282Z,25.41
2022-08-05T10:48:30.341Z,25.41
2022-08-05T10:49:10.072Z,25.42
2022-08-05T10:50:31.544Z,25.44
2022-08-05T10:51:21.845Z,25.45
2022-08-05T10:52:19.902Z,25.45
2022-08-05T10:53:07.688Z,25.45
2022-08-05T10:54:28.212Z,25.44
2022-08-05T10:55:07.690Z,25.44
2022-08-05T10:56:14.868Z,25.44
2022-08-05T10:57:07.652Z,25.45
2022-08-05T10:58:07.656Z,25.44
2022-08-05T10:59:12.161Z,25.45
2022-08-05T11:00:13.281Z,25.45
2022-08-05T11:01:07.611Z,25.45
2022-08-05T11:02:07.721Z,25.45
2022-08-05T11:03:25.402Z,25.45
2022-08-05T11:04:07.638Z,25.45
2022-08-05T11:05:07.562Z,25.46
2022-08-05T11:06:08.455Z,25.46
2022-08-05T11:07:07.556Z,25.48
2022-08-05T11:08:33.872Z,25.48
2022-08-05T11:09:07.541Z,25.46
2022-08-05T11:10:10.124Z,25.48
2022-08-05T11:11:14.615Z,25.48
2022-08-05T11:12:07.498Z,25.49
2022-08-05T11:13:07.477Z,25.49
2022-08-05T11:14:07.499Z,25.48
2022-08-05T11:15:19.026Z,25.49
2022-08-05T11:16:07.457Z,25.48
2022-08-05T11:18:00.349Z,25.49
2022-08-05T11:18:11.585Z,25.48
2022-08-05T11:20:16.436Z,25.48
2022-08-05T11:20:23.180Z,25.46
2022-08-05T11:21:11.762Z,25.46
2022-08-05T11:22:07.401Z,25.46
2022-08-05T11:23:08.955Z,25.48
2022-08-05T11:24:29.811Z,25.46
2022-08-05T11:25:16.862Z,25.46
2022-08-05T11:26:10.905Z,25.46
2022-08-05T11:27:07.333Z,25.48
2022-08-05T11:28:07.329Z,25.46
2022-08-05T11:29:12.973Z,25.45
2022-08-05T11:30:07.363Z,25.45
2022-08-05T11:31:07.332Z,25.46
2022-08-05T11:32:07.286Z,25.46
2022-08-05T11:33:07.272Z,25.46
2022-08-05T11:34:08.028Z,25.46
2022-08-05T11:35:07.255Z,25.45
2022-08-05T11:36:08.564Z,25.46
2022-08-05T11:38:29.409Z,25.46
2022-08-05T11:38:45.406Z,25.46
2022-08-05T11:39:07.278Z,25.46
2022-08-05T11:40:07.273Z,25.48
2022-08-05T11:41:35.408Z,25.49
2022-08-05T11:42:07.190Z,25.49
2022-08-05T11:43:07.190Z,25.51
2022-08-05T11:44:08.490Z,25.53
2022-08-05T11:45:14.513Z,25.54
2022-08-05T11:46:15.480Z,25.54
2022-08-05T11:47:11.998Z,25.57
2022-08-05T11:48:07.146Z,25.57
2022-08-05T11:49:08.019Z,25.57
2022-08-05T11:50:07.287Z,25.59
2022-08-05T11:51:07.093Z,25.60
2022-08-05T11:52:11.536Z,25.61
2022-08-05T11:53:09.844Z,25.61
2022-08-05T11:54:07.069Z,25.61
2022-08-05T11:55:10.523Z,25.61
2022-08-05T11:56:07.078Z,25.61
2022-08-05T11:57:08.866Z,25.61
2022-08-05T11:58:09.297Z,25.61
2022-08-05T11:59:13.723Z,25.63
2022-08-05T12:00:07.047Z,25.61
2022-08-05T12:01:08.503Z,25.63
2022-08-05T12:02:06.986Z,25.63
2022-08-05T12:03:07.048Z,25.61
2022-08-05T12:04:06.964Z,25.63
2022-08-05T12:05:18.503Z,25.63
2022-08-05T12:06:10.180Z,25.61
2022-08-05T12:07:06.928Z,25.61
2022-08-05T12:08:10.868Z,25.61
2022-08-05T12:09:06.909Z,25.60
2022-08-05T12:10:09.585Z,25.60
2022-08-05T12:11:06.889Z,25.59
2022-08-05T12:12:06.899Z,25.60
2022-08-05T12:13:16.814Z,25.59
2022-08-05T12:14:06.905Z,25.59
2022-08-05T12:15:06.852Z,25.60
2022-08-05T12:16:15.069Z,25.60
2022-08-05T12:18:00.600Z,25.60
2022-08-05T12:18:15.053Z,25.60
2022-08-05T12:19:08.394Z,25.60
2022-08-05T12:20:25.367Z,25.60
2022-08-05T12:21:06.801Z,25.60
2022-08-05T12:22:09.530Z,25.61
2022-08-05T12:23:06.770Z,25.61
2022-08-05T12:24:07.491Z,25.61
2022-08-05T12:25:06.754Z,25.61
2022-08-05T12:26:06.900Z,25.61
2022-08-05T12:27:09.920Z,25.61
2022-08-05T12:28:06.779Z,25.63
2022-08-05T12:29:09.634Z,25.61
2022-08-05T12:30:06.718Z,25.61
2022-08-05T12:31:06.723Z,25.61
2022-08-05T12:32:07.623Z,25.60
2022-08-05T12:33:07.180Z,25.61
2022-08-05T12:34:06.683Z,25.61
2022-08-05T12:35:06.653Z,25.63
2022-08-05T12:36:07.146Z,25.63
2022-08-05T12:37:06.627Z,25.63
2022-08-05T12:38:06.616Z,25.63
2022-08-05T12:39:07.038Z,25.64
2022-08-05T12:40:10.672Z,25.64
2022-08-05T12:41:10.929Z,25.63
2022-08-05T12:42:06.591Z,25.63
2022-08-05T12:43:06.565Z,25.63
2022-08-05T12:44:06.576Z,25.63
2022-08-05T12:45:08.882Z,25.64
2022-08-05T12:46:06.540Z,25.61
2022-08-05T12:47:06.535Z,25.61
2022-08-05T12:48:27.558Z,25.63
2022-08-05T12:49:13.416Z,25.61
2022-08-05T12:50:07.831Z,25.61
2022-08-05T12:51:06.493Z,25.60
2022-08-05T12:52:14.234Z,25.60
2022-08-05T12:53:06.476Z,25.60
2022-08-05T12:54:14.712Z,25.59
2022-08-05T12:55:06.475Z,25.57